createdAt,value
2023-02-14T00:00:39.690Z,11.15
2023-02-14T00:01:19.242Z,11.11
2023-02-14T00:02:20.232Z,11.11
2023-02-14T00:03:19.532Z,11.06
2023-02-14T00:04:19.437Z,11.02
2023-02-14T00:05:19.993Z,11.01
2023-02-14T00:06:19.846Z,10.99
2023-02-14T00:07:19.248Z,10.95
2023-02-14T00:08:19.836Z,10.93
2023-02-14T00:09:19.505Z,10.91
2023-02-14T00:10:19.393Z,10.90
2023-02-14T00:11:19.517Z,10.87
2023-02-14T00:12:19.332Z,10.86
2023-02-14T00:13:19.731Z,10.85
2023-02-14T00:14:19.225Z,10.85
2023-02-14T00:15:19.889Z,10.81
2023-02-14T00:16:19.038Z,10.81
2023-02-14T00:17:19.177Z,10.76
2023-02-14T00:18:19.828Z,10.74
2023-02-14T00:19:19.031Z,10.74
2023-02-14T00:20:19.752Z,10.72
2023-02-14T00:21:19.105Z,10.69
2023-02-14T00:22:19.312Z,10.66
2023-02-14T00:23:19.263Z,10.60
2023-02-14T00:24:19.763Z,10.56
2023-02-14T00:25:19.430Z,10.58
2023-02-14T00:26:19.134Z,10.57
2023-02-14T00:27:19.184Z,10.57
2023-02-14T00:28:19.303Z,10.53
2023-02-14T00:29:19.491Z,10.52
2023-02-14T00:30:20.104Z,10.50
2023-02-14T00:31:19.037Z,10.5
2023-02-14T00:32:19.050Z,10.47
2023-02-14T00:33:19.103Z,10.48
2023-02-14T00:34:19.449Z,10.42
2023-02-14T00:35:19.989Z,10.39
2023-02-14T00:36:18.821Z,10.39
2023-02-14T00:37:18.955Z,10.30
2023-02-14T00:38:18.959Z,10.30
2023-02-14T00:39:19.045Z,10.32
2023-02-14T00:40:19.422Z,10.30
2023-02-14T00:41:19.330Z,10.25
2023-02-14T00:42:18.842Z,10.23
2023-02-14T00:43:18.966Z,10.22
2023-02-14T00:44:19.740Z,10.21
2023-02-14T00:45:19.174Z,10.18
2023-02-14T00:46:19.368Z,10.17
2023-02-14T00:47:19.542Z,10.14
2023-02-14T00:48:19.608Z,10.17
2023-02-14T00:49:19.601Z,10.14
2023-02-14T00:50:19.673Z,10.15
2023-02-14T00:51:19.083Z,10.13
2023-02-14T00:52:19.180Z,10.15
2023-02-14T00:53:19.275Z,10.12
2023-02-14T00:54:19.482Z,10.11
2023-02-14T00:55:19.008Z,10.14
2023-02-14T00:56:19.381Z,10.14
2023-02-14T00:57:19.424Z,10.14
2023-02-14T00:58:19.479Z,10.15
2023-02-14T00:59:18.961Z,10.15
2023-02-14T01:00:20.162Z,10.17
2023-02-14T01:01:21.128Z,10.15
2023-02-14T01:02:19.203Z,10.13
2023-02-14T01:03:19.243Z,10.11
2023-02-14T01:04:19.537Z,10.13
2023-02-14T01:05:19.021Z,10.13
2023-02-14T01:06:19.616Z,10.12
2023-02-14T01:07:18.816Z,10.10
2023-02-14T01:08:19.358Z,10.09
2023-02-14T01:09:19.671Z,10.07
2023-02-14T01:10:19.957Z,10.07
2023-02-14T01:11:20.110Z,10.07
2023-02-14T01:12:19.854Z,10.06
2023-02-14T01:13:19.487Z,10.05
2023-02-14T01:14:17.244Z,10.02
2023-02-14T01:15:20.358Z,10
2023-02-14T01:16:19.344Z,10.00
2023-02-14T01:17:19.455Z,9.975
2023-02-14T01:18:19.181Z,9.960
2023-02-14T01:19:19.875Z,9.928
2023-02-14T01:20:20.354Z,9.930
2023-02-14T01:21:19.876Z,9.883
2023-02-14T01:22:19.441Z,9.862
2023-02-14T01:23:19.669Z,9.822
2023-02-14T01:24:18.917Z,9.796
2023-02-14T01:25:19.160Z,9.771
2023-02-14T01:26:19.159Z,9.739
2023-02-14T01:27:19.025Z,9.725
2023-02-14T01:28:18.822Z,9.704
2023-02-14T01:29:18.734Z,9.689
2023-02-14T01:30:19.607Z,9.704
2023-02-14T01:31:19.365Z,9.694
2023-02-14T01:32:18.776Z,9.699
2023-02-14T01:33:18.700Z,9.699
2023-02-14T01:34:19.086Z,9.666
2023-02-14T01:35:19.313Z,9.654
2023-02-14T01:36:19.546Z,9.626
2023-02-14T01:37:19.628Z,9.631
2023-02-14T01:38:19.805Z,9.626
2023-02-14T01:39:18.878Z,9.625
2023-02-14T01:40:18.927Z,9.609
2023-02-14T01:41:19.258Z,9.614
2023-02-14T01:42:19.610Z,9.595
2023-02-14T01:43:18.795Z,9.569
2023-02-14T01:44:19.317Z,9.539
2023-02-14T01:45:19.440Z,9.534
2023-02-14T01:46:19.452Z,9.505
2023-02-14T01:47:19.455Z,9.475
2023-02-14T01:48:19.686Z,9.465
2023-02-14T01:49:19.748Z,9.430
2023-02-14T01:50:19.110Z,9.430
2023-02-14T01:51:19.063Z,9.414
2023-02-14T01:52:19.230Z,9.385
2023-02-14T01:53:19.426Z,9.366
2023-02-14T01:54:19.727Z,9.345
2023-02-14T01:55:19.040Z,9.326
2023-02-14T01:56:19.502Z,9.300
2023-02-14T01:57:19.579Z,9.295
2023-02-14T01:58:18.840Z,9.265
2023-02-14T01:59:18.854Z,9.265
2023-02-14T02:00:19.675Z,9.255
2023-02-14T02:01:19.508Z,9.255
2023-02-14T02:02:19.545Z,9.225
2023-02-14T02:03:19.478Z,9.215
2023-02-14T02:04:19.266Z,9.199
2023-02-14T02:05:20.053Z,9.187
2023-02-14T02:06:19.350Z,9.166
2023-02-14T02:07:19.726Z,9.149
2023-02-14T02:08:19.283Z,9.142
2023-02-14T02:09:19.196Z,9.131
2023-02-14T02:10:19.302Z,9.104
2023-02-14T02:11:19.467Z,9.100
2023-02-14T02:12:19.852Z,9.079
2023-02-14T02:13:19.268Z,9.064
2023-02-14T02:14:19.314Z,9.069
2023-02-14T02:15:34.003Z,9.045
2023-02-14T02:16:19.044Z,9.039
2023-02-14T02:17:19.525Z,9.020
2023-02-14T02:18:19.622Z,9.010
2023-02-14T02:19:18.883Z,8.994
2023-02-14T02:20:19.291Z,8.949
2023-02-14T02:21:19.456Z,8.944
2023-02-14T02:22:19.928Z,8.925
2023-02-14T02:23:19.413Z,8.925
2023-02-14T02:24:19.598Z,8.895
2023-02-14T02:25:18.823Z,8.920
2023-02-14T02:26:18.718Z,8.899
2023-02-14T02:27:18.989Z,8.890
2023-02-14T02:28:18.789Z,8.899
2023-02-14T02:29:18.664Z,8.890
2023-02-14T02:30:19.035Z,8.909
2023-02-14T02:31:19.051Z,8.899
2023-02-14T02:32:19.303Z,8.904
2023-02-14T02:33:19.438Z,8.866
2023-02-14T02:34:19.632Z,8.885
2023-02-14T02:35:19.882Z,8.890
2023-02-14T02:36:19.450Z,8.868
2023-02-14T02:37:19.632Z,8.873
2023-02-14T02:38:18.644Z,8.854
2023-02-14T02:39:18.882Z,8.852
2023-02-14T02:40:19.375Z,8.838
2023-02-14T02:41:19.465Z,8.873
2023-02-14T02:42:19.430Z,8.815
2023-02-14T02:43:19.577Z,8.795
2023-02-14T02:44:20.050Z,8.755
2023-02-14T02:45:19.988Z,8.731
2023-02-14T02:46:19.593Z,8.733
2023-02-14T02:47:19.376Z,8.744
2023-02-14T02:48:19.451Z,8.765
2023-02-14T02:49:19.572Z,8.760
2023-02-14T02:50:19.713Z,8.765
2023-02-14T02:51:19.146Z,8.729
2023-02-14T02:52:19.637Z,8.774
2023-02-14T02:53:19.279Z,8.774
2023-02-14T02:54:19.435Z,8.800
2023-02-14T02:55:20.157Z,8.821
2023-02-14T02:56:19.999Z,8.805
2023-02-14T02:57:19.590Z,8.774
2023-02-14T02:58:19.571Z,8.795
2023-02-14T02:59:19.104Z,8.789
2023-02-14T03:00:20.598Z,8.774
2023-02-14T03:01:19.255Z,8.779
2023-02-14T03:02:19.534Z,8.789
2023-02-14T03:03:19.519Z,8.815
2023-02-14T03:04:19.517Z,8.838
2023-02-14T03:05:18.916Z,8.838
2023-02-14T03:06:19.537Z,8.850
2023-02-14T03:07:19.301Z,8.885
2023-02-14T03:08:19.258Z,8.880
2023-02-14T03:09:19.662Z,8.895
2023-02-14T03:10:20.177Z,8.895
2023-02-14T03:11:19.573Z,8.920
2023-02-14T03:12:19.751Z,8.920
2023-02-14T03:13:19.052Z,8.899
2023-02-14T03:14:18.969Z,8.840
2023-02-14T03:15:19.665Z,8.729
2023-02-14T03:16:19.267Z,8.654
2023-02-14T03:17:19.133Z,8.5
2023-02-14T03:18:19.293Z,8.430
2023-02-14T03:19:19.900Z,8.470
2023-02-14T03:20:19.583Z,8.494
2023-02-14T03:21:19.454Z,8.489
2023-02-14T03:22:19.352Z,8.534
2023-02-14T03:23:19.096Z,8.560
2023-02-14T03:24:19.337Z,8.595
2023-02-14T03:25:19.861Z,8.626
2023-02-14T03:26:19.477Z,8.666
2023-02-14T03:27:19.413Z,8.699
2023-02-14T03:28:19.586Z,8.725
2023-02-14T03:29:19.806Z,8.725
2023-02-14T03:30:19.550Z,8.725
2023-02-14T03:31:19.497Z,8.75
2023-02-14T03:32:19.557Z,8.760
2023-02-14T03:33:19.298Z,8.784
2023-02-14T03:34:19.514Z,8.795
2023-02-14T03:35:19.617Z,8.805
2023-02-14T03:36:18.965Z,8.821
2023-02-14T03:37:19.548Z,8.800
2023-02-14T03:38:19.709Z,8.805
2023-02-14T03:39:19.280Z,8.795
2023-02-14T03:40:19.535Z,8.789
2023-02-14T03:41:19.632Z,8.774
2023-02-14T03:42:19.137Z,8.760
2023-02-14T03:43:19.381Z,8.744
2023-02-14T03:44:19.299Z,8.729
2023-02-14T03:45:20.044Z,8.704
2023-02-14T03:46:19.577Z,8.694
2023-02-14T03:47:19.677Z,8.689
2023-02-14T03:48:19.308Z,8.671
2023-02-14T03:49:19.806Z,8.642
2023-02-14T03:50:19.473Z,8.631
2023-02-14T03:51:20.232Z,8.626
2023-02-14T03:52:19.518Z,8.590
2023-02-14T03:53:19.752Z,8.564
2023-02-14T03:54:19.579Z,8.545
2023-02-14T03:55:19.621Z,8.524
2023-02-14T03:56:19.663Z,8.515
2023-02-14T03:57:19.496Z,8.484
2023-02-14T03:58:19.817Z,8.475
2023-02-14T03:59:19.521Z,8.470
2023-02-14T04:00:20.926Z,8.467
2023-02-14T04:01:19.687Z,8.458
2023-02-14T04:02:19.804Z,8.435
2023-02-14T04:03:19.840Z,8.418
2023-02-14T04:04:19.618Z,8.385
2023-02-14T04:05:19.786Z,8.390
2023-02-14T04:06:19.907Z,8.395
2023-02-14T04:07:19.588Z,8.379
2023-02-14T04:08:19.317Z,8.359
2023-02-14T04:09:19.798Z,8.350
2023-02-14T04:10:19.434Z,8.321
2023-02-14T04:11:19.712Z,8.295
2023-02-14T04:12:26.498Z,8.289
2023-02-14T04:13:19.578Z,8.260
2023-02-14T04:14:19.505Z,8.260
2023-02-14T04:15:20.362Z,8.225
2023-02-14T04:16:19.800Z,8.210
2023-02-14T04:17:19.449Z,8.199
2023-02-14T04:18:20.001Z,8.178
2023-02-14T04:19:19.438Z,8.184
2023-02-14T04:20:25.255Z,8.144
2023-02-14T04:21:20.306Z,8.109
2023-02-14T04:22:20.218Z,8.104
2023-02-14T04:23:19.780Z,8.074
2023-02-14T04:24:20.299Z,8.079
2023-02-14T04:25:20.325Z,8.069
2023-02-14T04:26:27.292Z,8.060
2023-02-14T04:27:20.756Z,8.039
2023-02-14T04:28:20.552Z,8.020
2023-02-14T04:29:19.988Z,7.985
2023-02-14T04:30:20.401Z,7.974
2023-02-14T04:31:20.132Z,7.940
2023-02-14T04:32:20.204Z,7.929
2023-02-14T04:33:19.985Z,7.889
2023-02-14T04:34:20.116Z,7.874
2023-02-14T04:35:20.610Z,7.867
2023-02-14T04:36:20.177Z,7.833
2023-02-14T04:37:20.251Z,7.833
2023-02-14T04:38:20.349Z,7.839
2023-02-14T04:39:20.092Z,7.810
2023-02-14T04:40:21.061Z,7.806
2023-02-14T04:41:20.585Z,7.784
2023-02-14T04:42:20.189Z,7.800
2023-02-14T04:43:20.323Z,7.804
2023-02-14T04:44:20.021Z,7.784
2023-02-14T04:45:20.040Z,7.764
2023-02-14T04:46:20.016Z,7.760
2023-02-14T04:47:20.109Z,7.744
2023-02-14T04:48:19.943Z,7.75
2023-02-14T04:49:19.562Z,7.735
2023-02-14T04:50:19.696Z,7.744
2023-02-14T04:51:19.791Z,7.739
2023-02-14T04:52:19.439Z,7.715
2023-02-14T04:53:19.867Z,7.724
2023-02-14T04:54:38.716Z,7.724
2023-02-14T04:55:19.600Z,7.699
2023-02-14T04:56:19.218Z,7.693
2023-02-14T04:57:20.360Z,7.682
2023-02-14T04:58:19.963Z,7.684
2023-02-14T04:59:19.701Z,7.659
2023-02-14T05:00:20.668Z,7.637
2023-02-14T05:01:20.114Z,7.643
2023-02-14T05:02:19.827Z,7.637
2023-02-14T05:03:19.792Z,7.659
2023-02-14T05:04:19.520Z,7.655
2023-02-14T05:05:20.292Z,7.631
2023-02-14T05:06:19.681Z,7.643
2023-02-14T05:07:20.202Z,7.625
2023-02-14T05:08:19.981Z,7.610
2023-02-14T05:09:19.894Z,7.599
2023-02-14T05:10:19.794Z,7.590
2023-02-14T05:11:19.887Z,7.574
2023-02-14T05:12:19.422Z,7.559
2023-02-14T05:13:19.864Z,7.539
2023-02-14T05:14:19.419Z,7.548
2023-02-14T05:15:20.255Z,7.535
2023-02-14T05:16:20.580Z,7.530
2023-02-14T05:17:19.587Z,7.527
2023-02-14T05:18:19.498Z,7.494
2023-02-14T05:19:19.028Z,7.489
2023-02-14T05:20:19.824Z,7.482
2023-02-14T05:21:19.807Z,7.481
2023-02-14T05:22:19.797Z,7.440
2023-02-14T05:23:19.579Z,7.425
2023-02-14T05:24:20.128Z,7.421
2023-02-14T05:25:20.278Z,7.396
2023-02-14T05:26:19.914Z,7.373
2023-02-14T05:27:19.943Z,7.349
2023-02-14T05:28:19.777Z,7.322
2023-02-14T05:29:19.052Z,7.300
2023-02-14T05:30:20.328Z,7.269
2023-02-14T05:31:19.577Z,7.269
2023-02-14T05:32:19.886Z,7.239
2023-02-14T05:33:19.709Z,7.235
2023-02-14T05:34:21.650Z,7.215
2023-02-14T05:35:19.890Z,7.215
2023-02-14T05:36:20.109Z,7.183
2023-02-14T05:37:19.984Z,7.171
2023-02-14T05:38:19.939Z,7.114
2023-02-14T05:39:20.133Z,7.079
2023-02-14T05:40:20.324Z,7.065
2023-02-14T05:41:19.786Z,7.045
2023-02-14T05:42:19.604Z,6.974
2023-02-14T05:43:19.371Z,6.965
2023-02-14T05:44:20.163Z,6.949
2023-02-14T05:45:20.328Z,6.945
2023-02-14T05:46:18.990Z,6.934
2023-02-14T05:47:19.979Z,6.960
2023-02-14T05:48:20.035Z,6.925
2023-02-14T05:49:19.822Z,6.920
2023-02-14T05:50:20.300Z,6.965
2023-02-14T05:51:19.279Z,6.948
2023-02-14T05:52:19.530Z,6.828
2023-02-14T05:53:19.332Z,6.760
2023-02-14T05:54:19.929Z,6.800
2023-02-14T05:55:20.190Z,6.867
2023-02-14T05:56:19.903Z,6.914
2023-02-14T05:57:19.656Z,6.945
2023-02-14T05:58:19.824Z,6.980
2023-02-14T05:59:19.598Z,6.940
2023-02-14T06:00:20.229Z,6.969
2023-02-14T06:01:19.518Z,6.965
2023-02-14T06:02:19.621Z,6.974
2023-02-14T06:03:19.670Z,7.045
2023-02-14T06:04:19.586Z,7.054
2023-02-14T06:05:19.773Z,7.105
2023-02-14T06:06:19.730Z,7.144
2023-02-14T06:07:19.867Z,7.155
2023-02-14T06:08:19.731Z,7.184
2023-02-14T06:09:19.580Z,7.177
2023-02-14T06:10:19.478Z,7.204
2023-02-14T06:11:19.581Z,7.171
2023-02-14T06:12:19.931Z,7.143
2023-02-14T06:13:19.960Z,7.178
2023-02-14T06:14:20.390Z,7.183
2023-02-14T06:15:19.767Z,7.149
2023-02-14T06:16:19.708Z,7.182
2023-02-14T06:17:19.606Z,7.275
2023-02-14T06:18:19.565Z,7.310
2023-02-14T06:19:20.091Z,7.367
2023-02-14T06:20:20.228Z,7.394
2023-02-14T06:21:19.790Z,7.414
2023-02-14T06:22:19.258Z,7.434
2023-02-14T06:23:19.945Z,7.465
2023-02-14T06:24:19.992Z,7.485
2023-02-14T06:25:19.874Z,7.480
2023-02-14T06:26:19.864Z,7.485
2023-02-14T06:27:19.571Z,7.505
2023-02-14T06:28:19.394Z,7.489
2023-02-14T06:29:19.956Z,7.510
2023-02-14T06:30:20.189Z,7.429
2023-02-14T06:31:19.755Z,7.423
2023-02-14T06:32:19.871Z,7.420
2023-02-14T06:33:19.697Z,7.418
2023-02-14T06:34:19.806Z,7.440
2023-02-14T06:35:19.680Z,7.469
2023-02-14T06:36:19.550Z,7.467
2023-02-14T06:37:19.948Z,7.467
2023-02-14T06:38:19.654Z,7.474
2023-02-14T06:39:19.067Z,7.538
2023-02-14T06:40:20.260Z,7.565
2023-02-14T06:41:24.566Z,7.579
2023-02-14T06:43:24.973Z,7.668
2023-02-14T06:44:19.853Z,7.683
2023-02-14T06:45:25.235Z,7.671
2023-02-14T06:46:20.188Z,7.659
2023-02-14T06:47:20.208Z,7.655
2023-02-14T06:48:20.140Z,7.655
2023-02-14T06:49:19.643Z,7.671
2023-02-14T06:50:20.641Z,7.655
2023-02-14T06:51:19.480Z,7.689
2023-02-14T06:52:19.546Z,7.678
2023-02-14T06:53:19.697Z,7.704
2023-02-14T06:54:19.751Z,7.735
2023-02-14T06:55:20.282Z,7.764
2023-02-14T06:56:20.067Z,7.795
2023-02-14T06:57:19.808Z,7.800
2023-02-14T06:58:19.648Z,7.815
2023-02-14T06:59:19.808Z,7.821
2023-02-14T07:00:20.612Z,7.855
2023-02-14T07:01:20.107Z,7.861
2023-02-14T07:02:19.564Z,7.874
2023-02-14T07:03:20.172Z,7.885
2023-02-14T07:04:19.268Z,7.877
2023-02-14T07:05:19.843Z,7.914
2023-02-14T07:06:20.233Z,7.909
2023-02-14T07:07:20.290Z,7.934
2023-02-14T07:08:19.616Z,7.954
2023-02-14T07:09:19.501Z,7.949
2023-02-14T07:10:19.647Z,7.974
2023-02-14T07:11:19.859Z,7.974
2023-02-14T07:12:19.452Z,7.989
2023-02-14T07:13:19.711Z,7.980
2023-02-14T07:14:20.036Z,7.980
2023-02-14T07:15:20.673Z,7.989
2023-02-14T07:16:20.034Z,8.015
2023-02-14T07:17:20.531Z,7.974
2023-02-14T07:18:19.847Z,7.985
2023-02-14T07:19:19.906Z,7.985
2023-02-14T07:20:22.505Z,7.969
2023-02-14T07:21:19.768Z,7.965
2023-02-14T07:22:19.595Z,8.005
2023-02-14T07:23:19.859Z,8.034
2023-02-14T07:24:19.996Z,8.069
2023-02-14T07:25:20.103Z,8.095
2023-02-14T07:26:19.523Z,8.095
2023-02-14T07:27:19.559Z,8.090
2023-02-14T07:28:19.617Z,8.104
2023-02-14T07:30:19.777Z,8.126
2023-02-14T07:31:20.432Z,8.109
2023-02-14T07:32:20.451Z,8.104
2023-02-14T07:33:19.994Z,8.090
2023-02-14T07:34:20.284Z,8.069
2023-02-14T07:35:20.167Z,8.079
2023-02-14T07:36:20.073Z,8.090
2023-02-14T07:37:19.794Z,8.109
2023-02-14T07:38:20.250Z,8.164
2023-02-14T07:39:19.612Z,8.119
2023-02-14T07:40:20.818Z,8.149
2023-02-14T07:41:20.016Z,8.199
2023-02-14T07:42:19.458Z,8.220
2023-02-14T07:43:20.217Z,8.164
2023-02-14T07:44:19.686Z,8.208
2023-02-14T07:45:21.882Z,8.159
2023-02-14T07:46:20.115Z,8.126
2023-02-14T07:47:19.552Z,8.189
2023-02-14T07:48:19.479Z,8.220
2023-02-14T07:49:19.376Z,8.255
2023-02-14T07:50:19.478Z,8.206
2023-02-14T07:51:19.720Z,8.149
2023-02-14T07:52:19.883Z,8.255
2023-02-14T07:53:19.965Z,8.305
2023-02-14T07:54:20.417Z,8.376
2023-02-14T07:55:20.351Z,8.373
2023-02-14T07:56:19.510Z,8.435
2023-02-14T07:58:20.046Z,8.328
2023-02-14T07:59:19.941Z,8.420
2023-02-14T08:00:21.201Z,8.394
2023-02-14T08:01:19.747Z,8.531
2023-02-14T08:02:19.412Z,8.642
2023-02-14T08:03:19.755Z,8.704
2023-02-14T08:04:20.517Z,8.800
2023-02-14T08:05:21.235Z,8.887
2023-02-14T08:06:19.853Z,8.960
2023-02-14T08:07:19.974Z,9.024
2023-02-14T08:08:20.214Z,9.079
2023-02-14T08:09:20.075Z,9.166
2023-02-14T08:10:20.524Z,9.234
2023-02-14T08:11:20.063Z,9.255
2023-02-14T08:12:19.954Z,9.333
2023-02-14T08:13:19.818Z,9.409
2023-02-14T08:14:20.236Z,9.479
2023-02-14T08:15:20.007Z,9.529
2023-02-14T08:16:19.582Z,9.620
2023-02-14T08:17:19.923Z,9.687
2023-02-14T08:18:19.971Z,9.755
2023-02-14T08:19:19.818Z,9.765
2023-02-14T08:20:20.135Z,9.805
2023-02-14T08:21:20.031Z,9.914
2023-02-14T08:22:19.836Z,10.00
2023-02-14T08:23:20.032Z,10.07
2023-02-14T08:24:20.468Z,10.18
2023-02-14T08:25:20.098Z,10.23
2023-02-14T08:26:19.912Z,10.30
2023-02-14T08:27:19.906Z,10.39
2023-02-14T08:28:21.163Z,10.48
2023-02-14T08:29:20.135Z,10.55
2023-02-14T08:30:20.757Z,10.62
2023-02-14T08:31:29.986Z,10.70
2023-02-14T08:32:20.514Z,10.77
2023-02-14T08:33:20.219Z,10.85
2023-02-14T08:34:19.764Z,10.93
2023-02-14T08:35:19.901Z,11.02
2023-02-14T08:36:20.342Z,11.08
2023-02-14T08:37:19.932Z,11.15
2023-02-14T08:38:19.918Z,11.23
2023-02-14T08:39:20.022Z,11.32
2023-02-14T08:40:20.627Z,11.39
2023-02-14T08:41:20.524Z,11.45
2023-02-14T08:42:20.462Z,11.5
2023-02-14T08:43:19.751Z,11.53
2023-02-14T08:44:20.055Z,11.65
2023-02-14T08:45:20.748Z,11.73
2023-02-14T08:46:19.870Z,11.80
2023-02-14T08:47:20.277Z,11.90
2023-02-14T08:48:19.598Z,11.96
2023-02-14T08:49:19.749Z,12.01
2023-02-14T08:50:19.983Z,12.09
2023-02-14T08:51:20.188Z,12.13
2023-02-14T08:52:20.126Z,12.19
2023-02-14T08:53:19.529Z,12.33
2023-02-14T08:54:20.165Z,12.37
2023-02-14T08:55:19.681Z,12.42
2023-02-14T08:56:20.331Z,12.46
2023-02-14T08:57:20.068Z,12.5
2023-02-14T08:58:20.414Z,12.55
2023-02-14T08:59:20.328Z,12.53
2023-02-14T09:00:20.502Z,12.52
2023-02-14T09:01:19.924Z,12.61
2023-02-14T09:02:24.274Z,12.73
2023-02-14T09:03:19.619Z,12.77
2023-02-14T09:04:20.276Z,12.85
2023-02-14T09:05:20.250Z,12.93
2023-02-14T09:06:24.678Z,12.97
2023-02-14T09:07:20.465Z,13.01
2023-02-14T09:08:20.204Z,13.06
2023-02-14T09:09:19.936Z,13.09
2023-02-14T09:10:20.539Z,13.15
2023-02-14T09:11:19.853Z,13.17
2023-02-14T09:12:25.654Z,13.19
2023-02-14T09:13:19.980Z,13.22
2023-02-14T09:14:29.276Z,13.24
2023-02-14T09:15:20.468Z,13.29
2023-02-14T09:16:20.050Z,13.41
2023-02-14T09:17:20.158Z,13.43
2023-02-14T09:18:19.578Z,13.41
2023-02-14T09:19:19.818Z,13.42
2023-02-14T09:20:20.441Z,13.43
2023-02-14T09:21:19.878Z,13.52
2023-02-14T09:22:20.345Z,13.55
2023-02-14T09:23:19.917Z,13.53
2023-02-14T09:24:33.943Z,13.50
2023-02-14T09:25:20.074Z,13.49
2023-02-14T09:26:19.830Z,13.46
2023-02-14T09:27:19.909Z,13.42
2023-02-14T09:28:20.066Z,13.39
2023-02-14T09:29:20.149Z,13.36
2023-02-14T09:30:20.531Z,13.37
2023-02-14T09:31:20.181Z,13.37
2023-02-14T09:32:33.890Z,13.40
2023-02-14T09:33:20.036Z,13.41
2023-02-14T09:34:34.285Z,13.40
2023-02-14T09:35:19.788Z,13.40
2023-02-14T09:36:19.991Z,13.38
2023-02-14T09:37:20.061Z,13.40
2023-02-14T09:38:19.954Z,13.42
2023-02-14T09:39:20.558Z,13.42
2023-02-14T09:40:20.478Z,13.42
2023-02-14T09:41:19.984Z,13.47
2023-02-14T09:42:20.697Z,13.46
2023-02-14T09:43:20.535Z,13.50
2023-02-14T09:44:20.101Z,13.48
2023-02-14T09:45:20.438Z,13.52
2023-02-14T09:46:19.908Z,13.49
2023-02-14T09:47:20.116Z,13.55
2023-02-14T09:48:20.043Z,13.66
2023-02-14T09:49:20.353Z,13.68
2023-02-14T09:50:20.059Z,13.82
2023-02-14T09:51:20.003Z,14.02
2023-02-14T09:52:20.108Z,13.97
2023-02-14T09:53:20.213Z,13.96
2023-02-14T09:54:19.936Z,13.95
2023-02-14T09:55:20.347Z,13.96
2023-02-14T09:56:20.029Z,14.03
2023-02-14T09:57:20.443Z,14.09
2023-02-14T09:58:20.026Z,14.17
2023-02-14T09:59:20.340Z,14.28
2023-02-14T10:00:20.667Z,14.30
2023-02-14T10:01:20.927Z,14.37
2023-02-14T10:02:20.399Z,14.44
2023-02-14T10:03:19.856Z,14.52
2023-02-14T10:04:20.245Z,14.62
2023-02-14T10:05:20.289Z,14.74
2023-02-14T10:06:20.506Z,14.75
2023-02-14T10:07:20.566Z,14.80
2023-02-14T10:08:20.407Z,14.77
2023-02-14T10:09:20.020Z,14.76
2023-02-14T10:10:20.828Z,14.75
2023-02-14T10:11:21.011Z,14.76
2023-02-14T10:12:20.178Z,14.78
2023-02-14T10:13:20.422Z,14.76
2023-02-14T10:14:20.266Z,14.76
2023-02-14T10:15:20.454Z,14.77
2023-02-14T10:16:20.630Z,14.82
2023-02-14T10:17:20.225Z,14.89
2023-02-14T10:18:20.614Z,14.96
2023-02-14T10:19:20.178Z,15
2023-02-14T10:20:20.567Z,14.98
2023-02-14T10:21:20.757Z,14.98
2023-02-14T10:22:20.668Z,15.02
2023-02-14T10:23:20.953Z,15.05
2023-02-14T10:24:20.226Z,15.11
2023-02-14T10:25:20.779Z,15.19
2023-02-14T10:26:20.546Z,15.26
2023-02-14T10:27:20.683Z,15.31
2023-02-14T10:28:20.963Z,15.33
2023-02-14T10:29:20.399Z,15.38
2023-02-14T10:30:20.994Z,15.37
2023-02-14T10:31:20.787Z,15.39
2023-02-14T10:32:20.869Z,15.41
2023-02-14T10:33:20.643Z,15.32
2023-02-14T10:34:20.296Z,15.35
2023-02-14T10:35:20.613Z,15.39
2023-02-14T10:36:21.965Z,15.38
2023-02-14T10:37:21.329Z,15.41
2023-02-14T10:38:20.026Z,15.41
2023-02-14T10:39:20.792Z,15.40
2023-02-14T10:40:20.177Z,15.36
2023-02-14T10:41:20.338Z,15.34
2023-02-14T10:42:20.580Z,15.37
2023-02-14T10:43:20.753Z,15.47
2023-02-14T10:44:20.025Z,15.48
2023-02-14T10:45:20.577Z,15.47
2023-02-14T10:46:21.205Z,15.42
2023-02-14T10:47:20.625Z,15.47
2023-02-14T10:48:20.588Z,15.48
2023-02-14T10:49:21.462Z,15.54
2023-02-14T10:50:21.567Z,15.57
2023-02-14T10:51:21.214Z,15.56
2023-02-14T10:52:21.198Z,15.59
2023-02-14T10:53:21.112Z,15.62
2023-02-14T10:54:21.533Z,15.68
2023-02-14T10:55:31.897Z,15.71
2023-02-14T10:56:20.385Z,15.70
2023-02-14T10:57:20.518Z,15.80
2023-02-14T10:58:20.338Z,15.85
2023-02-14T10:59:20.106Z,15.88
2023-02-14T11:00:21.122Z,15.89
2023-02-14T11:01:20.431Z,15.93
2023-02-14T11:02:20.735Z,15.95
2023-02-14T11:03:20.524Z,16.03
2023-02-14T11:04:20.551Z,16.05
2023-02-14T11:05:21.004Z,16.05
2023-02-14T11:06:21.682Z,16.01
2023-02-14T11:07:20.444Z,16.04
2023-02-14T11:08:20.624Z,16.04
2023-02-14T11:09:21.326Z,16.06
2023-02-14T11:10:19.149Z,16.07
2023-02-14T11:11:21.049Z,16.11
2023-02-14T11:12:21.236Z,16.11
2023-02-14T11:13:21.093Z,16.09
2023-02-14T11:15:20.532Z,16.11
2023-02-14T11:16:20.135Z,16.17
2023-02-14T11:17:20.025Z,16.22
2023-02-14T11:18:20.633Z,16.27
2023-02-14T11:19:20.579Z,16.21
2023-02-14T11:20:20.587Z,16.17
2023-02-14T11:21:20.312Z,16.18
2023-02-14T11:22:20.543Z,16.21
2023-02-14T11:23:21.054Z,16.34
2023-02-14T11:24:20.164Z,16.45
2023-02-14T11:25:20.552Z,16.50
2023-02-14T11:26:20.818Z,16.49
2023-02-14T11:27:21.284Z,16.46
2023-02-14T11:28:21.009Z,16.48
2023-02-14T11:29:21.097Z,16.50
2023-02-14T11:30:21.426Z,16.53
2023-02-14T11:31:20.615Z,16.56
2023-02-14T11:32:20.295Z,16.63
2023-02-14T11:33:20.881Z,16.83
2023-02-14T11:34:20.331Z,16.81
2023-02-14T11:35:20.703Z,16.82
2023-02-14T11:36:21.159Z,16.85
2023-02-14T11:37:26.083Z,16.91
2023-02-14T11:38:20.596Z,16.95
2023-02-14T11:39:21.925Z,16.94
2023-02-14T11:40:21.163Z,16.95
2023-02-14T11:41:20.410Z,17.10
2023-02-14T11:42:20.146Z,17.19
2023-02-14T11:43:20.240Z,17.17
2023-02-14T11:44:20.421Z,17.21
2023-02-14T11:45:20.105Z,17.27
2023-02-14T11:46:20.856Z,17.20
2023-02-14T11:47:20.586Z,17.25
2023-02-14T11:48:31.418Z,17.31
2023-02-14T11:49:20.688Z,17.52
2023-02-14T11:50:21.234Z,17.56
2023-02-14T11:51:21.096Z,17.56
2023-02-14T11:52:21.119Z,17.62
2023-02-14T11:53:20.770Z,17.63
2023-02-14T11:54:21.003Z,17.63
2023-02-14T11:55:20.411Z,17.63
2023-02-14T11:56:21.289Z,17.60
2023-02-14T11:57:20.803Z,17.70
2023-02-14T11:58:21.000Z,17.81
2023-02-14T11:59:39.068Z,17.75
2023-02-14T12:00:22.089Z,17.73
2023-02-14T12:01:21.130Z,17.77
2023-02-14T12:02:20.896Z,17.77
2023-02-14T12:03:20.266Z,17.76
2023-02-14T12:04:21.574Z,17.88
2023-02-14T12:05:21.601Z,17.96
2023-02-14T12:06:21.548Z,17.97
2023-02-14T12:07:20.568Z,18
2023-02-14T12:08:22.179Z,17.93
2023-02-14T12:09:21.181Z,18.00
2023-02-14T12:10:22.128Z,18.06
2023-02-14T12:11:21.510Z,18.26
2023-02-14T12:12:22.022Z,18.43
2023-02-14T12:13:20.777Z,18.36
2023-02-14T12:14:20.973Z,18.33
2023-02-14T12:15:20.537Z,18.45
2023-02-14T12:16:20.551Z,18.44
2023-02-14T12:17:19.872Z,18.34
2023-02-14T12:18:19.708Z,18.29
2023-02-14T12:19:19.825Z,18.29
2023-02-14T12:20:20.646Z,18.31
2023-02-14T12:21:19.918Z,18.37
2023-02-14T12:22:20.989Z,18.46
2023-02-14T12:23:20.723Z,18.60
2023-02-14T12:24:19.842Z,18.67
2023-02-14T12:25:20.316Z,18.68
2023-02-14T12:26:19.951Z,18.78
2023-02-14T12:28:18.872Z,18.47
2023-02-14T12:29:20.296Z,18.36
2023-02-14T12:30:20.400Z,18.29
2023-02-14T12:31:20.099Z,18.36
2023-02-14T12:32:19.880Z,18.43
2023-02-14T12:33:20.261Z,18.45
2023-02-14T12:34:20.486Z,18.46
2023-02-14T12:35:20.126Z,18.50
2023-02-14T12:36:19.528Z,18.45
2023-02-14T12:37:20.016Z,18.50
2023-02-14T12:38:20.538Z,18.53
2023-02-14T12:39:19.989Z,18.58
2023-02-14T12:40:20.519Z,18.67
2023-02-14T12:41:19.918Z,18.76
2023-02-14T12:42:20.287Z,18.87
2023-02-14T12:43:19.992Z,19.04
2023-02-14T12:44:20.287Z,18.92
2023-02-14T12:45:19.719Z,18.75
2023-02-14T12:46:19.818Z,18.62
2023-02-14T12:47:20.388Z,18.57
2023-02-14T12:48:19.918Z,18.66
2023-02-14T12:49:20.130Z,18.77
2023-02-14T12:50:19.612Z,18.75
2023-02-14T12:51:20.071Z,18.82
2023-02-14T12:52:20.134Z,18.88
2023-02-14T12:53:20.240Z,18.88
2023-02-14T12:54:19.596Z,18.86
2023-02-14T12:55:21.116Z,18.66
2023-02-14T12:56:19.856Z,18.61
2023-02-14T12:57:20.232Z,18.67
2023-02-14T12:58:19.697Z,18.72